Terminal Aerodrome Forecast
Issued by NWS

Home | Current Version | Previous Version | Text Only | Print | Product List | Glossary On
Versions: 1 2 3 4 5 6 7 8 9 10 11 12 13 14 15 16
791
FTUS43 KLSX 261735 AAA
TAFCPS
TAF AMD
KCPS 261735Z 2618/2718 20012G18KT P6SM OVC090
     FM262000 20011KT P6SM VCSH OVC050
     FM270600 17004KT P6SM OVC040
     FM271200 14004KT 5SM BR BKN025
     FM271600 16006KT P6SM SCT025=

USA.gov is the U.S. government's official web portal to all federal, state and local government web resources and services.